createdAt,value
2022-08-26T00:01:42.079Z,20.52
2022-08-26T00:04:12.878Z,20.62
2022-08-26T00:06:42.718Z,20.42
2022-08-26T00:09:15.992Z,20.30
2022-08-26T00:11:44.464Z,20.43
2022-08-26T00:14:13.968Z,20.43
2022-08-26T00:16:47.616Z,20.41
2022-08-26T00:19:18.293Z,20.38
2022-08-26T00:21:48.526Z,20.37
2022-08-26T00:24:18.158Z,20.36
2022-08-26T00:26:45.249Z,20.35
2022-08-26T00:29:13.139Z,20.15
2022-08-26T00:31:40.864Z,20.35
2022-08-26T00:34:09.633Z,20.14
2022-08-26T00:36:39.685Z,20.33
2022-08-26T00:39:08.731Z,20.31
2022-08-26T00:41:38.898Z,20.20
2022-08-26T00:44:07.519Z,20.17
2022-08-26T00:46:39.810Z,20.13
2022-08-26T00:49:22.693Z,20.09
2022-08-26T00:51:52.625Z,19.91
2022-08-26T00:54:21.267Z,19.81
2022-08-26T00:57:16.541Z,19.90
2022-08-26T00:59:49.450Z,19.93
2022-08-26T01:02:20.199Z,19.93
2022-08-26T01:04:55.459Z,19.96
2022-08-26T01:07:26.199Z,20.00
2022-08-26T01:09:56.141Z,19.99
2022-08-26T01:12:25.302Z,19.92
2022-08-26T01:14:53.311Z,19.87
2022-08-26T01:17:20.156Z,19.81
2022-08-26T01:19:53.413Z,19.73
2022-08-26T01:22:31.485Z,19.63
2022-08-26T01:25:00.829Z,19.72
2022-08-26T01:27:33.622Z,19.65
2022-08-26T01:30:02.197Z,19.58
2022-08-26T01:32:32.963Z,19.41
2022-08-26T01:35:01.110Z,19.58
2022-08-26T01:37:34.891Z,19.57
2022-08-26T01:40:02.736Z,19.59
2022-08-26T01:42:29.923Z,19.55
2022-08-26T01:45:10.436Z,19.54
2022-08-26T01:47:38.864Z,19.56
2022-08-26T01:50:13.366Z,19.57
2022-08-26T01:52:51.641Z,19.55
2022-08-26T01:55:32.892Z,19.40
2022-08-26T01:58:05.436Z,19.42
2022-08-26T02:00:33.658Z,19.47
2022-08-26T02:03:21.140Z,19.48
2022-08-26T02:06:05.285Z,19.48
2022-08-26T02:08:46.927Z,19.34
2022-08-26T02:11:14.828Z,19.52
2022-08-26T02:13:48.907Z,19.53
2022-08-26T02:16:19.601Z,19.54
2022-08-26T02:18:47.605Z,19.55
2022-08-26T02:21:14.800Z,19.56
2022-08-26T02:23:42.726Z,19.41
2022-08-26T02:26:17.090Z,19.57
2022-08-26T02:28:51.314Z,19.67
2022-08-26T02:31:18.306Z,19.51
2022-08-26T02:33:45.179Z,19.82
2022-08-26T02:36:13.461Z,19.87
2022-08-26T02:38:43.174Z,19.94
2022-08-26T02:41:11.241Z,19.99
2022-08-26T02:43:38.508Z,20.06
2022-08-26T02:46:06.006Z,20.17
2022-08-26T02:48:33.432Z,20.18
2022-08-26T02:51:01.940Z,20.23
2022-08-26T02:53:31.761Z,20.16
2022-08-26T02:55:59.064Z,20.48
2022-08-26T02:58:27.352Z,20.56
2022-08-26T03:00:54.180Z,20.60
2022-08-26T03:03:22.549Z,20.68
2022-08-26T03:05:52.024Z,20.64
2022-08-26T03:08:20.022Z,20.90
2022-08-26T03:10:47.651Z,21.04
2022-08-26T03:13:15.796Z,20.99
2022-08-26T03:15:42.629Z,20.87
2022-08-26T03:18:11.112Z,21.05
2022-08-26T03:20:38.818Z,21.05
2022-08-26T03:23:05.646Z,21.20
2022-08-26T03:25:33.969Z,21.36
2022-08-26T03:28:02.493Z,21.43
2022-08-26T03:30:45.318Z,21.35
2022-08-26T03:33:14.226Z,22.64
2022-08-26T03:35:43.563Z,24.12
2022-08-26T03:38:11.238Z,24.14
2022-08-26T03:40:39.180Z,23.91
2022-08-26T03:43:09.727Z,24.03
2022-08-26T03:45:38.273Z,24.12
2022-08-26T03:48:05.722Z,23.98
2022-08-26T03:50:34.202Z,23.82
2022-08-26T03:53:03.696Z,24.02
2022-08-26T03:55:32.661Z,24.27
2022-08-26T03:58:00.843Z,24.40
2022-08-26T04:00:28.873Z,24.50
2022-08-26T04:02:56.138Z,24.75
2022-08-26T04:05:24.446Z,24.89
2022-08-26T04:07:52.392Z,24.75
2022-08-26T04:10:28.758Z,24.75
2022-08-26T04:12:59.326Z,24.70
2022-08-26T04:15:27.563Z,24.71
2022-08-26T04:17:55.818Z,24.75
2022-08-26T04:20:22.987Z,24.91
2022-08-26T04:22:51.146Z,25.13
2022-08-26T04:25:18.811Z,25.19
2022-08-26T04:27:48.293Z,25.29
2022-08-26T04:30:16.716Z,25.52
2022-08-26T04:32:44.303Z,25.60
2022-08-26T04:35:11.572Z,25.48
2022-08-26T04:37:39.002Z,25.58
2022-08-26T04:40:10.927Z,25.52
2022-08-26T04:42:38.307Z,25.63
2022-08-26T04:45:10.323Z,25.78
2022-08-26T04:47:38.095Z,25.99
2022-08-26T04:50:07.494Z,26.15
2022-08-26T04:52:36.280Z,25.94
2022-08-26T04:55:06.658Z,26.24
2022-08-26T04:57:37.345Z,26.35
2022-08-26T05:00:07.034Z,26.40
2022-08-26T05:02:34.405Z,26.45
2022-08-26T05:05:01.692Z,26.58
2022-08-26T05:07:31.417Z,26.63
2022-08-26T05:09:58.678Z,26.54
2022-08-26T05:12:25.962Z,26.81
2022-08-26T05:14:53.698Z,26.95
2022-08-26T05:17:20.678Z,27.05
2022-08-26T05:19:48.106Z,27.20
2022-08-26T05:22:17.459Z,27.16
2022-08-26T05:24:46.552Z,27.27
2022-08-26T05:27:16.187Z,27.42
2022-08-26T05:29:44.697Z,27.62
2022-08-26T05:32:11.897Z,27.73
2022-08-26T05:34:39.344Z,27.93
2022-08-26T05:37:10.867Z,28.02
2022-08-26T05:39:41.261Z,28.17
2022-08-26T05:42:10.392Z,28.29
2022-08-26T05:44:53.603Z,28.23
2022-08-26T05:47:21.311Z,28.33
2022-08-26T05:49:51.607Z,28.37
2022-08-26T05:52:19.844Z,28.36
2022-08-26T05:54:47.646Z,28.36
2022-08-26T05:57:14.880Z,28.39
2022-08-26T05:59:41.753Z,28.52
2022-08-26T06:02:09.365Z,28.72
2022-08-26T06:04:36.331Z,28.85
2022-08-26T06:07:03.528Z,28.86
2022-08-26T06:09:33.098Z,28.84
2022-08-26T06:12:01.848Z,28.79
2022-08-26T06:14:30.630Z,28.75
2022-08-26T06:16:57.855Z,28.67
2022-08-26T06:19:24.740Z,28.86
2022-08-26T06:21:54.130Z,28.91
2022-08-26T06:24:40.379Z,28.94
2022-08-26T06:27:11.418Z,29.03
2022-08-26T06:29:38.734Z,28.95
2022-08-26T06:32:06.822Z,29.07
2022-08-26T06:34:34.453Z,29.12
2022-08-26T06:37:06.401Z,29.18
2022-08-26T06:39:33.898Z,29.24
2022-08-26T06:42:02.660Z,29.38
2022-08-26T06:44:34.014Z,29.45
2022-08-26T06:47:01.032Z,29.53
2022-08-26T06:49:28.137Z,29.46
2022-08-26T06:51:58.940Z,29.35
2022-08-26T06:54:28.779Z,29.54
2022-08-26T06:56:57.536Z,29.67
2022-08-26T06:59:25.590Z,29.73
2022-08-26T07:01:53.320Z,29.76
2022-08-26T07:04:23.189Z,29.97
2022-08-26T07:06:53.620Z,30.04
2022-08-26T07:09:27.398Z,30.20
2022-08-26T07:11:56.914Z,30.14
2022-08-26T07:14:25.267Z,30.09
2022-08-26T07:16:54.231Z,30.28
2022-08-26T07:19:29.791Z,30.38
2022-08-26T07:22:05.462Z,30.53
2022-08-26T07:24:36.707Z,30.62
2022-08-26T07:27:07.253Z,30.65
2022-08-26T07:29:37.928Z,30.70
2022-08-26T07:32:04.804Z,30.37
2022-08-26T07:34:35.039Z,30.39
2022-08-26T07:37:02.208Z,30.58
2022-08-26T07:39:31.516Z,30.79
2022-08-26T07:42:07.369Z,30.68
2022-08-26T07:44:37.822Z,30.79
2022-08-26T07:47:10.088Z,30.87
2022-08-26T07:49:52.844Z,30.97
2022-08-26T07:52:25.924Z,30.85
2022-08-26T07:54:55.721Z,31.01
2022-08-26T07:57:24.112Z,30.97
2022-08-26T07:59:52.003Z,30.97
2022-08-26T08:02:24.795Z,31.00
2022-08-26T08:04:52.497Z,30.97
2022-08-26T08:07:19.544Z,31.03
2022-08-26T08:09:49.729Z,30.99
2022-08-26T08:12:18.313Z,30.99
2022-08-26T08:14:49.022Z,30.96
2022-08-26T08:17:16.467Z,30.94
2022-08-26T08:19:43.413Z,30.92
2022-08-26T08:22:17.254Z,31.13
2022-08-26T08:24:49.846Z,31.06
2022-08-26T08:27:23.746Z,31.18
2022-08-26T08:29:54.969Z,31.18
2022-08-26T08:32:23.493Z,31.10
2022-08-26T08:34:50.828Z,31.33
2022-08-26T08:37:17.900Z,31.43
2022-08-26T08:39:45.046Z,31.48
2022-08-26T08:42:34.702Z,31.50
2022-08-26T08:45:10.698Z,31.47
2022-08-26T08:47:58.630Z,31.39
2022-08-26T08:50:35.569Z,31.52
2022-08-26T08:53:11.154Z,31.65
2022-08-26T08:55:53.107Z,31.82
2022-08-26T08:58:24.917Z,31.87
2022-08-26T09:01:00.704Z,31.88
2022-08-26T09:03:32.551Z,31.84
2022-08-26T09:06:01.802Z,31.75
2022-08-26T09:08:35.840Z,31.79
2022-08-26T09:11:04.484Z,31.62
2022-08-26T09:13:31.979Z,31.92
2022-08-26T09:16:01.908Z,31.91
2022-08-26T09:18:54.175Z,31.90
2022-08-26T09:21:25.199Z,31.95
2022-08-26T09:23:56.127Z,31.89
2022-08-26T09:26:29.218Z,31.94
2022-08-26T09:29:00.856Z,32.08
2022-08-26T09:31:31.193Z,32.11
2022-08-26T09:34:17.427Z,31.99
2022-08-26T09:36:50.325Z,32.14
2022-08-26T09:39:37.985Z,32.17
2022-08-26T09:42:22.556Z,32.28
2022-08-26T09:45:00.414Z,32.37
2022-08-26T09:47:39.161Z,32.42
2022-08-26T09:50:29.059Z,32.56
2022-08-26T09:53:17.059Z,32.50
2022-08-26T09:55:55.209Z,32.39
2022-08-26T09:58:32.809Z,32.39
2022-08-26T10:01:03.202Z,32.36
2022-08-26T10:03:33.567Z,32.50
2022-08-26T10:06:02.433Z,32.60
2022-08-26T10:08:41.910Z,32.67
2022-08-26T10:11:25.127Z,32.73
2022-08-26T10:13:58.113Z,32.95
2022-08-26T10:16:30.102Z,32.86
2022-08-26T10:19:44.696Z,33.02
2022-08-26T10:22:30.677Z,33.30
2022-08-26T10:25:02.770Z,33.22
2022-08-26T10:27:52.912Z,33.20
2022-08-26T10:30:25.911Z,33.22
2022-08-26T10:33:03.779Z,33.24
2022-08-26T10:35:32.774Z,33.20
2022-08-26T10:38:07.777Z,33.38
2022-08-26T10:41:10.484Z,33.35
2022-08-26T10:43:45.256Z,33.30
2022-08-26T10:46:22.480Z,33.49
2022-08-26T10:49:06.897Z,33.72
2022-08-26T10:51:42.244Z,33.71
2022-08-26T10:54:39.669Z,33.41
2022-08-26T10:57:22.453Z,33.15
2022-08-26T11:00:32.506Z,33.06
2022-08-26T11:03:21.827Z,33.10
2022-08-26T11:06:19.000Z,33.09
2022-08-26T11:08:48.529Z,33.18
2022-08-26T11:11:41.709Z,33.14
2022-08-26T11:14:28.645Z,33.28
2022-08-26T11:16:59.014Z,33.32
2022-08-26T11:19:57.087Z,33.47
2022-08-26T11:22:31.065Z,33.65
2022-08-26T11:24:57.848Z,33.84
2022-08-26T11:27:37.307Z,33.94
2022-08-26T11:30:13.972Z,34.17
2022-08-26T11:32:40.833Z,34.45
2022-08-26T11:35:09.900Z,34.37
2022-08-26T11:37:40.644Z,34.32
2022-08-26T11:40:10.187Z,34.49
2022-08-26T11:42:49.239Z,34.51
2022-08-26T11:45:18.163Z,34.06
2022-08-26T11:47:49.419Z,33.93
2022-08-26T11:50:26.184Z,34.04
2022-08-26T11:52:53.116Z,34.12
2022-08-26T11:55:20.281Z,33.87
2022-08-26T11:57:54.527Z,33.61
2022-08-26T12:00:26.524Z,33.61
2022-08-26T12:02:55.370Z,33.68
2022-08-26T12:05:44.553Z,33.51
2022-08-26T12:08:16.790Z,33.68
2022-08-26T12:10:43.929Z,33.64
2022-08-26T12:13:22.094Z,33.64
2022-08-26T12:15:58.106Z,33.49
2022-08-26T12:18:30.164Z,33.36
2022-08-26T12:21:00.539Z,33.30
2022-08-26T12:23:36.825Z,33.45
2022-08-26T12:26:25.514Z,33.35
2022-08-26T12:28:59.327Z,33.15
2022-08-26T12:31:44.054Z,33.10
2022-08-26T12:34:18.449Z,33.25
2022-08-26T12:36:48.677Z,33.15
2022-08-26T12:39:24.335Z,33.05
2022-08-26T12:41:58.209Z,32.84
2022-08-26T12:44:53.725Z,32.89
2022-08-26T12:47:42.246Z,32.99
2022-08-26T12:50:30.709Z,32.93
2022-08-26T12:52:57.883Z,32.87
2022-08-26T12:55:29.041Z,32.80
2022-08-26T12:58:14.212Z,32.67
2022-08-26T13:00:48.847Z,32.71
2022-08-26T13:03:35.437Z,32.69
2022-08-26T13:06:30.037Z,32.67
2022-08-26T13:09:24.637Z,32.61
2022-08-26T13:11:53.182Z,32.60
2022-08-26T13:14:24.648Z,32.53
2022-08-26T13:16:52.934Z,32.55
2022-08-26T13:19:26.901Z,32.54
2022-08-26T13:21:57.642Z,32.60
2022-08-26T13:24:35.438Z,32.73
2022-08-26T13:27:04.092Z,32.83
2022-08-26T13:29:31.847Z,32.94
2022-08-26T13:31:59.708Z,33.00
2022-08-26T13:34:27.288Z,33.05
2022-08-26T13:36:56.370Z,33.15
2022-08-26T13:39:23.871Z,32.99
2022-08-26T13:41:52.196Z,33.06
2022-08-26T13:44:19.676Z,33.29
2022-08-26T13:46:47.107Z,33.20
2022-08-26T13:49:14.745Z,33.03
2022-08-26T13:51:42.009Z,32.98
2022-08-26T13:54:09.633Z,32.88
2022-08-26T13:56:37.555Z,32.54
2022-08-26T13:59:05.602Z,32.68
2022-08-26T14:01:34.983Z,32.66
2022-08-26T14:04:03.166Z,32.62
2022-08-26T14:06:30.336Z,32.58
2022-08-26T14:08:57.940Z,32.45
2022-08-26T14:11:25.185Z,32.52
2022-08-26T14:13:52.447Z,32.33
2022-08-26T14:16:29.410Z,32.31
2022-08-26T14:18:56.434Z,32.32
2022-08-26T14:21:25.032Z,32.27
2022-08-26T14:23:52.637Z,32.12
2022-08-26T14:26:28.840Z,32.15
2022-08-26T14:28:58.314Z,31.97
2022-08-26T14:31:27.064Z,32.11
2022-08-26T14:33:56.700Z,31.87
2022-08-26T14:36:31.259Z,32.03
2022-08-26T14:39:12.770Z,31.78
2022-08-26T14:41:55.007Z,31.88
2022-08-26T14:44:26.058Z,31.82
2022-08-26T14:46:54.641Z,31.73
2022-08-26T14:49:23.494Z,31.67
2022-08-26T14:51:50.552Z,31.55
2022-08-26T14:54:18.651Z,31.58
2022-08-26T14:56:54.175Z,31.57
2022-08-26T14:59:25.536Z,31.56
2022-08-26T15:01:53.657Z,31.55
2022-08-26T15:04:21.298Z,31.52
2022-08-26T15:06:48.879Z,31.49
2022-08-26T15:09:16.867Z,31.55
2022-08-26T15:11:44.701Z,31.36
2022-08-26T15:14:19.712Z,31.40
2022-08-26T15:16:52.053Z,31.20
2022-08-26T15:19:19.795Z,31.31
2022-08-26T15:21:51.084Z,31.21
2022-08-26T15:24:23.575Z,31.15
2022-08-26T15:26:50.777Z,30.98
2022-08-26T15:29:18.433Z,30.98
2022-08-26T15:31:45.619Z,30.91
2022-08-26T15:34:16.753Z,30.87
2022-08-26T15:36:46.029Z,30.76
2022-08-26T15:39:17.738Z,30.67
2022-08-26T15:41:45.619Z,30.56
2022-08-26T15:44:14.381Z,30.49
2022-08-26T15:46:42.253Z,30.35
2022-08-26T15:49:12.060Z,30.28
2022-08-26T15:51:48.054Z,30.18
2022-08-26T15:54:16.766Z,30.10
2022-08-26T15:56:47.915Z,29.94
2022-08-26T15:59:15.517Z,29.90
2022-08-26T16:01:43.396Z,29.65
2022-08-26T16:04:11.564Z,29.56
2022-08-26T16:06:40.625Z,29.50
2022-08-26T16:09:08.300Z,29.38
2022-08-26T16:11:37.532Z,29.22
2022-08-26T16:14:06.035Z,29.21
2022-08-26T16:16:33.237Z,28.99
2022-08-26T16:19:04.293Z,28.98
2022-08-26T16:21:34.284Z,28.91
2022-08-26T16:24:01.552Z,28.82
2022-08-26T16:26:32.471Z,28.74
2022-08-26T16:29:01.994Z,28.48
2022-08-26T16:31:29.078Z,28.35
2022-08-26T16:33:56.015Z,28.41
2022-08-26T16:36:23.166Z,28.35
2022-08-26T16:38:53.495Z,28.43
2022-08-26T16:41:24.580Z,28.41
2022-08-26T16:43:52.058Z,28.41
2022-08-26T16:46:19.598Z,28.30
2022-08-26T16:48:46.750Z,28.34
2022-08-26T16:51:18.729Z,28.31
2022-08-26T16:53:47.450Z,28.19
2022-08-26T16:56:16.796Z,27.94
2022-08-26T16:58:43.583Z,27.80
2022-08-26T17:01:10.671Z,27.69
2022-08-26T17:03:37.895Z,27.85
2022-08-26T17:06:05.257Z,27.77
2022-08-26T17:08:32.295Z,27.72
2022-08-26T17:11:00.577Z,27.49
2022-08-26T17:13:35.906Z,27.54
2022-08-26T17:16:09.028Z,27.57
2022-08-26T17:18:36.248Z,27.47
2022-08-26T17:21:10.336Z,27.33
2022-08-26T17:23:38.471Z,27.24
2022-08-26T17:26:05.693Z,27.12
2022-08-26T17:28:33.671Z,26.88
2022-08-26T17:31:01.294Z,26.98
2022-08-26T17:33:29.117Z,26.85
2022-08-26T17:35:56.506Z,26.71
2022-08-26T17:38:24.195Z,26.59
2022-08-26T17:40:51.370Z,26.44
2022-08-26T17:43:19.006Z,26.51
2022-08-26T17:45:46.321Z,26.41
2022-08-26T17:48:13.366Z,26.29
2022-08-26T17:50:42.121Z,26.16
2022-08-26T17:53:19.606Z,26.06
2022-08-26T17:55:48.122Z,26.02
2022-08-26T17:58:19.992Z,25.88
2022-08-26T18:00:50.038Z,25.85
2022-08-26T18:03:18.455Z,25.78
2022-08-26T18:05:51.063Z,25.67
2022-08-26T18:08:18.827Z,25.44
2022-08-26T18:10:46.239Z,25.53
2022-08-26T18:13:14.971Z,25.46
2022-08-26T18:15:45.625Z,25.33
2022-08-26T18:18:14.515Z,25.34
2022-08-26T18:20:43.115Z,25.34
2022-08-26T18:23:11.782Z,25.41
2022-08-26T18:25:43.320Z,25.35
2022-08-26T18:28:10.536Z,25.38
2022-08-26T18:30:38.105Z,25.36
2022-08-26T18:33:05.249Z,25.19
2022-08-26T18:36:01.381Z,25.13
2022-08-26T18:38:30.469Z,25.09
2022-08-26T18:40:59.255Z,25.06
2022-08-26T18:43:26.574Z,25.05
2022-08-26T18:46:02.665Z,25.09
2022-08-26T18:48:29.733Z,25.11
2022-08-26T18:51:00.106Z,25.12
2022-08-26T18:53:28.163Z,25.09
2022-08-26T18:55:55.606Z,25.06
2022-08-26T18:58:22.579Z,25.07
2022-08-26T19:00:49.723Z,24.98
2022-08-26T19:03:19.030Z,24.89
2022-08-26T19:05:46.125Z,24.85
2022-08-26T19:08:13.179Z,24.90
2022-08-26T19:10:41.533Z,24.90
2022-08-26T19:13:09.833Z,24.82
2022-08-26T19:15:40.487Z,24.69
2022-08-26T19:18:08.997Z,24.61
2022-08-26T19:20:44.752Z,24.50
2022-08-26T19:23:31.064Z,24.35
2022-08-26T19:26:03.606Z,24.41
2022-08-26T19:28:31.638Z,24.45
2022-08-26T19:30:59.850Z,24.57
2022-08-26T19:33:28.369Z,24.56
2022-08-26T19:35:55.808Z,24.48
2022-08-26T19:38:23.675Z,24.32
2022-08-26T19:40:50.835Z,24.33
2022-08-26T19:43:17.965Z,24.35
2022-08-26T19:45:46.538Z,24.43
2022-08-26T19:48:13.637Z,24.49
2022-08-26T19:50:40.725Z,24.37
2022-08-26T19:53:10.372Z,24.45
2022-08-26T19:55:37.757Z,24.41
2022-08-26T19:58:04.686Z,24.47
2022-08-26T20:00:32.014Z,24.52
2022-08-26T20:02:59.758Z,24.47
2022-08-26T20:05:26.942Z,24.40
2022-08-26T20:07:54.252Z,24.32
2022-08-26T20:10:23.695Z,24.30
2022-08-26T20:12:51.886Z,24.08
2022-08-26T20:15:21.758Z,24.17
2022-08-26T20:17:49.415Z,24.17
2022-08-26T20:20:34.948Z,23.97
2022-08-26T20:23:04.465Z,24.08
2022-08-26T20:25:32.942Z,24.00
2022-08-26T20:28:00.889Z,24.02
2022-08-26T20:30:27.842Z,23.75
2022-08-26T20:32:55.330Z,23.51
2022-08-26T20:35:24.032Z,23.63
2022-08-26T20:37:51.117Z,23.68
2022-08-26T20:40:18.147Z,23.60
2022-08-26T20:42:45.726Z,23.52
2022-08-26T20:45:12.731Z,23.69
2022-08-26T20:47:39.743Z,23.62
2022-08-26T20:50:08.698Z,23.62
2022-08-26T20:52:35.936Z,23.58
2022-08-26T20:55:02.966Z,23.63
2022-08-26T20:57:30.502Z,23.58
2022-08-26T20:59:57.800Z,23.54
2022-08-26T21:02:27.856Z,23.51
2022-08-26T21:04:55.278Z,23.48
2022-08-26T21:07:22.431Z,23.43
2022-08-26T21:09:49.624Z,23.30
2022-08-26T21:12:18.655Z,23.39
2022-08-26T21:14:49.500Z,23.44
2022-08-26T21:17:16.798Z,23.41
2022-08-26T21:19:45.785Z,23.39
2022-08-26T21:22:14.139Z,23.32
2022-08-26T21:24:42.724Z,23.20
2022-08-26T21:27:09.779Z,23.11
2022-08-26T21:29:37.605Z,23.11
2022-08-26T21:32:07.553Z,23.05
2022-08-26T21:34:34.633Z,22.97
2022-08-26T21:37:01.849Z,22.96
2022-08-26T21:39:32.979Z,22.87
2022-08-26T21:41:59.866Z,22.83
2022-08-26T21:44:27.925Z,22.79
2022-08-26T21:46:57.222Z,22.70
2022-08-26T21:49:24.176Z,22.60
2022-08-26T21:51:55.812Z,22.35
2022-08-26T21:54:23.053Z,22.43
2022-08-26T21:56:50.964Z,22.42
2022-08-26T21:59:19.125Z,22.21
2022-08-26T22:01:47.084Z,22.33
2022-08-26T22:04:14.956Z,22.25
2022-08-26T22:06:45.843Z,22.31
2022-08-26T22:09:14.784Z,22.14
2022-08-26T22:11:42.245Z,22.27
2022-08-26T22:14:10.198Z,22.35
2022-08-26T22:16:37.785Z,22.25
2022-08-26T22:19:04.913Z,22.33
2022-08-26T22:21:33.542Z,22.15
2022-08-26T22:24:00.616Z,22.12
2022-08-26T22:26:32.086Z,21.79
2022-08-26T22:29:00.694Z,21.87
2022-08-26T22:31:37.304Z,21.81
2022-08-26T22:34:17.273Z,21.60
2022-08-26T22:36:46.986Z,21.71
2022-08-26T22:39:15.706Z,21.51
2022-08-26T22:41:44.145Z,21.56
2022-08-26T22:44:12.468Z,21.51
2022-08-26T22:46:40.894Z,21.39
2022-08-26T22:49:09.627Z,21.42
2022-08-26T22:51:36.821Z,21.34
2022-08-26T22:54:04.793Z,21.26
2022-08-26T22:56:31.897Z,21.17
2022-08-26T22:58:59.189Z,21.11
2022-08-26T23:01:26.797Z,21.07
2022-08-26T23:03:53.969Z,20.98
2022-08-26T23:06:21.667Z,21.01
2022-08-26T23:08:49.467Z,20.86
2022-08-26T23:11:16.513Z,20.93
2022-08-26T23:13:43.767Z,20.85
2022-08-26T23:16:12.963Z,20.79
2022-08-26T23:18:41.454Z,20.67
2022-08-26T23:21:09.283Z,20.72
2022-08-26T23:23:38.091Z,20.67
2022-08-26T23:26:07.826Z,20.63
2022-08-26T23:28:38.575Z,20.56
2022-08-26T23:31:06.770Z,20.53
2022-08-26T23:33:52.235Z,20.27
2022-08-26T23:36:22.784Z,20.41
2022-08-26T23:38:53.091Z,20.38
2022-08-26T23:41:23.065Z,20.36
2022-08-26T23:43:51.657Z,20.31
2022-08-26T23:46:19.368Z,20.14
2022-08-26T23:48:47.036Z,20.02
2022-08-26T23:51:32.462Z,20.16
2022-08-26T23:54:00.054Z,20.03
2022-08-26T23:56:27.118Z,20.05
2022-08-26T23:58:54.932Z,20.03
